sensor_id;sensor_type;location;lat;lon;timestamp;P1;durP1;ratioP1;P2;durP2;ratioP2
48727;SDS011;34527;45.618;5.130;2023-09-08T00:01:15;3.97;;;3.38;;
48727;SDS011;34527;45.618;5.130;2023-09-08T00:03:40;4.53;;;3.90;;
48727;SDS011;34527;45.618;5.130;2023-09-08T00:06:06;4.80;;;3.15;;
48727;SDS011;34527;45.618;5.130;2023-09-08T00:08:32;5.85;;;3.80;;
48727;SDS011;34527;45.618;5.130;2023-09-08T00:10:57;3.92;;;3.38;;
48727;SDS011;34527;45.618;5.130;2023-09-08T00:13:23;5.13;;;3.70;;
48727;SDS011;34527;45.618;5.130;2023-09-08T00:15:48;4.03;;;3.63;;
48727;SDS011;34527;45.618;5.130;2023-09-08T00:18:14;3.95;;;3.40;;
48727;SDS011;34527;45.618;5.130;2023-09-08T00:20:39;6.97;;;3.42;;
48727;SDS011;34527;45.618;5.130;2023-09-08T00:23:07;4.10;;;3.58;;
48727;SDS011;34527;45.618;5.130;2023-09-08T00:25:32;3.97;;;3.58;;
48727;SDS011;34527;45.618;5.130;2023-09-08T00:27:59;3.88;;;3.50;;
48727;SDS011;34527;45.618;5.130;2023-09-08T00:30:25;3.45;;;3.15;;
48727;SDS011;34527;45.618;5.130;2023-09-08T00:32:50;7.18;;;3.70;;
48727;SDS011;34527;45.618;5.130;2023-09-08T00:35:16;5.13;;;3.03;;
48727;SDS011;34527;45.618;5.130;2023-09-08T00:37:42;4.15;;;3.45;;
48727;SDS011;34527;45.618;5.130;2023-09-08T00:40:07;4.60;;;3.60;;
48727;SDS011;34527;45.618;5.130;2023-09-08T00:42:33;3.90;;;3.50;;
48727;SDS011;34527;45.618;5.130;2023-09-08T00:44:59;3.67;;;3.30;;
48727;SDS011;34527;45.618;5.130;2023-09-08T00:47:25;6.75;;;3.40;;
48727;SDS011;34527;45.618;5.130;2023-09-08T00:49:50;3.35;;;3.05;;
48727;SDS011;34527;45.618;5.130;2023-09-08T00:52:16;3.55;;;3.25;;
48727;SDS011;34527;45.618;5.130;2023-09-08T00:54:42;4.10;;;3.45;;
48727;SDS011;34527;45.618;5.130;2023-09-08T00:57:08;3.83;;;3.40;;
48727;SDS011;34527;45.618;5.130;2023-09-08T00:59:35;7.32;;;3.78;;
48727;SDS011;34527;45.618;5.130;2023-09-08T01:02:04;3.67;;;3.30;;
48727;SDS011;34527;45.618;5.130;2023-09-08T01:04:30;4.82;;;4.07;;
48727;SDS011;34527;45.618;5.130;2023-09-08T01:06:58;5.60;;;3.40;;
48727;SDS011;34527;45.618;5.130;2023-09-08T01:09:24;7.35;;;3.50;;
48727;SDS011;34527;45.618;5.130;2023-09-08T01:11:50;4.88;;;3.35;;
48727;SDS011;34527;45.618;5.130;2023-09-08T01:14:19;5.00;;;3.40;;
48727;SDS011;34527;45.618;5.130;2023-09-08T01:16:45;7.45;;;3.80;;
48727;SDS011;34527;45.618;5.130;2023-09-08T01:19:13;4.93;;;3.40;;
48727;SDS011;34527;45.618;5.130;2023-09-08T01:21:49;3.88;;;3.00;;
48727;SDS011;34527;45.618;5.130;2023-09-08T01:27:34;3.30;;;3.00;;
48727;SDS011;34527;45.618;5.130;2023-09-08T01:30:02;4.30;;;2.90;;
48727;SDS011;34527;45.618;5.130;2023-09-08T01:32:30;5.43;;;3.38;;
48727;SDS011;34527;45.618;5.130;2023-09-08T01:34:57;5.18;;;3.10;;
48727;SDS011;34527;45.618;5.130;2023-09-08T01:37:24;4.88;;;3.60;;
48727;SDS011;34527;45.618;5.130;2023-09-08T01:39:50;4.13;;;3.08;;
48727;SDS011;34527;45.618;5.130;2023-09-08T01:42:16;4.50;;;3.63;;
48727;SDS011;34527;45.618;5.130;2023-09-08T01:44:42;4.03;;;3.63;;
48727;SDS011;34527;45.618;5.130;2023-09-08T01:47:07;5.13;;;3.33;;
48727;SDS011;34527;45.618;5.130;2023-09-08T01:49:33;3.63;;;2.90;;
48727;SDS011;34527;45.618;5.130;2023-09-08T01:51:58;4.47;;;3.28;;
48727;SDS011;34527;45.618;5.130;2023-09-08T01:54:24;3.33;;;3.03;;
48727;SDS011;34527;45.618;5.130;2023-09-08T01:56:50;3.83;;;3.42;;
48727;SDS011;34527;45.618;5.130;2023-09-08T01:59:16;3.50;;;3.20;;
48727;SDS011;34527;45.618;5.130;2023-09-08T02:01:42;3.63;;;3.25;;
48727;SDS011;34527;45.618;5.130;2023-09-08T02:04:07;5.43;;;2.90;;
48727;SDS011;34527;45.618;5.130;2023-09-08T02:06:33;3.47;;;3.17;;
48727;SDS011;34527;45.618;5.130;2023-09-08T02:08:59;4.20;;;3.47;;
48727;SDS011;34527;45.618;5.130;2023-09-08T02:11:24;3.38;;;3.08;;
48727;SDS011;34527;45.618;5.130;2023-09-08T02:13:50;3.60;;;3.25;;
48727;SDS011;34527;45.618;5.130;2023-09-08T02:16:16;3.50;;;3.20;;
48727;SDS011;34527;45.618;5.130;2023-09-08T02:18:43;5.35;;;3.22;;
48727;SDS011;34527;45.618;5.130;2023-09-08T02:21:09;3.83;;;3.38;;
48727;SDS011;34527;45.618;5.130;2023-09-08T02:23:35;3.83;;;3.20;;
48727;SDS011;34527;45.618;5.130;2023-09-08T02:26:00;4.53;;;3.15;;
48727;SDS011;34527;45.618;5.130;2023-09-08T02:28:26;4.45;;;3.10;;
48727;SDS011;34527;45.618;5.130;2023-09-08T02:30:52;3.20;;;2.90;;
48727;SDS011;34527;45.618;5.130;2023-09-08T02:33:17;3.50;;;3.20;;
48727;SDS011;34527;45.618;5.130;2023-09-08T02:35:43;4.43;;;3.10;;
48727;SDS011;34527;45.618;5.130;2023-09-08T02:38:09;6.85;;;3.50;;
48727;SDS011;34527;45.618;5.130;2023-09-08T02:40:34;4.95;;;3.28;;
48727;SDS011;34527;45.618;5.130;2023-09-08T02:43:00;3.90;;;3.50;;
48727;SDS011;34527;45.618;5.130;2023-09-08T02:45:26;5.28;;;3.22;;
48727;SDS011;34527;45.618;5.130;2023-09-08T02:47:52;4.65;;;3.40;;
48727;SDS011;34527;45.618;5.130;2023-09-08T02:50:18;4.85;;;3.35;;
48727;SDS011;34527;45.618;5.130;2023-09-08T02:52:44;3.92;;;3.15;;
48727;SDS011;34527;45.618;5.130;2023-09-08T02:55:10;6.00;;;3.50;;
48727;SDS011;34527;45.618;5.130;2023-09-08T02:57:36;6.38;;;3.38;;
48727;SDS011;34527;45.618;5.130;2023-09-08T03:00:02;4.15;;;3.33;;
48727;SDS011;34527;45.618;5.130;2023-09-08T03:02:30;3.40;;;3.10;;
48727;SDS011;34527;45.618;5.130;2023-09-08T03:04:55;4.00;;;3.70;;
48727;SDS011;34527;45.618;5.130;2023-09-08T03:07:21;5.55;;;3.80;;
48727;SDS011;34527;45.618;5.130;2023-09-08T03:09:47;6.25;;;3.53;;
48727;SDS011;34527;45.618;5.130;2023-09-08T03:12:13;7.72;;;3.60;;
48727;SDS011;34527;45.618;5.130;2023-09-08T03:14:38;3.95;;;3.65;;
48727;SDS011;34527;45.618;5.130;2023-09-08T03:17:04;4.22;;;3.60;;
48727;SDS011;34527;45.618;5.130;2023-09-08T03:19:30;4.43;;;3.90;;
48727;SDS011;34527;45.618;5.130;2023-09-08T03:21:56;3.80;;;3.45;;
48727;SDS011;34527;45.618;5.130;2023-09-08T03:24:21;4.45;;;4.00;;
48727;SDS011;34527;45.618;5.130;2023-09-08T03:26:47;8.40;;;3.80;;
48727;SDS011;34527;45.618;5.130;2023-09-08T03:29:12;5.32;;;3.95;;
48727;SDS011;34527;45.618;5.130;2023-09-08T03:31:38;4.13;;;3.72;;
48727;SDS011;34527;45.618;5.130;2023-09-08T03:34:05;4.45;;;3.65;;
48727;SDS011;34527;45.618;5.130;2023-09-08T03:36:31;7.63;;;3.83;;
48727;SDS011;34527;45.618;5.130;2023-09-08T03:39:00;4.35;;;3.78;;
48727;SDS011;34527;45.618;5.130;2023-09-08T03:41:27;4.72;;;3.60;;
48727;SDS011;34527;45.618;5.130;2023-09-08T03:43:52;5.57;;;3.70;;
48727;SDS011;34527;45.618;5.130;2023-09-08T03:46:18;5.53;;;3.50;;
48727;SDS011;34527;45.618;5.130;2023-09-08T03:48:43;6.38;;;3.70;;
48727;SDS011;34527;45.618;5.130;2023-09-08T03:51:09;4.78;;;3.65;;
48727;SDS011;34527;45.618;5.130;2023-09-08T03:53:35;6.05;;;3.88;;
48727;SDS011;34527;45.618;5.130;2023-09-08T03:56:00;4.20;;;3.80;;
48727;SDS011;34527;45.618;5.130;2023-09-08T03:58:26;4.20;;;3.85;;
48727;SDS011;34527;45.618;5.130;2023-09-08T04:00:52;4.18;;;3.78;;
48727;SDS011;34527;45.618;5.130;2023-09-08T04:03:17;5.65;;;3.67;;
48727;SDS011;34527;45.618;5.130;2023-09-08T04:05:43;5.05;;;3.90;;
48727;SDS011;34527;45.618;5.130;2023-09-08T04:08:08;4.68;;;3.65;;
48727;SDS011;34527;45.618;5.130;2023-09-08T04:10:34;5.82;;;4.10;;
48727;SDS011;34527;45.618;5.130;2023-09-08T04:13:00;4.60;;;4.07;;
48727;SDS011;34527;45.618;5.130;2023-09-08T04:15:25;8.13;;;4.10;;
48727;SDS011;34527;45.618;5.130;2023-09-08T04:17:51;4.28;;;3.65;;
48727;SDS011;34527;45.618;5.130;2023-09-08T04:20:17;3.92;;;3.53;;
48727;SDS011;34527;45.618;5.130;2023-09-08T04:22:43;5.72;;;4.10;;
48727;SDS011;34527;45.618;5.130;2023-09-08T04:25:09;4.80;;;4.13;;
48727;SDS011;34527;45.618;5.130;2023-09-08T04:27:35;4.65;;;3.88;;
48727;SDS011;34527;45.618;5.130;2023-09-08T04:30:02;6.82;;;4.40;;
48727;SDS011;34527;45.618;5.130;2023-09-08T04:32:29;5.13;;;3.92;;
48727;SDS011;34527;45.618;5.130;2023-09-08T04:34:54;4.25;;;3.80;;
48727;SDS011;34527;45.618;5.130;2023-09-08T04:37:20;8.20;;;4.53;;
48727;SDS011;34527;45.618;5.130;2023-09-08T04:39:46;4.88;;;4.15;;
48727;SDS011;34527;45.618;5.130;2023-09-08T04:42:11;5.13;;;4.10;;
48727;SDS011;34527;45.618;5.130;2023-09-08T04:44:38;5.88;;;3.80;;
48727;SDS011;34527;45.618;5.130;2023-09-08T04:47:04;5.32;;;4.35;;
48727;SDS011;34527;45.618;5.130;2023-09-08T04:49:29;4.60;;;4.13;;
48727;SDS011;34527;45.618;5.130;2023-09-08T04:51:55;4.95;;;4.00;;
48727;SDS011;34527;45.618;5.130;2023-09-08T04:54:21;5.05;;;4.47;;
48727;SDS011;34527;45.618;5.130;2023-09-08T04:56:49;5.90;;;4.10;;
48727;SDS011;34527;45.618;5.130;2023-09-08T04:59:15;8.57;;;5.25;;
48727;SDS011;34527;45.618;5.130;2023-09-08T05:01:41;4.78;;;4.25;;
48727;SDS011;34527;45.618;5.130;2023-09-08T05:04:08;4.68;;;4.15;;
48727;SDS011;34527;45.618;5.130;2023-09-08T05:06:34;5.55;;;4.53;;
48727;SDS011;34527;45.618;5.130;2023-09-08T05:08:59;6.78;;;4.60;;
48727;SDS011;34527;45.618;5.130;2023-09-08T05:11:25;7.10;;;4.43;;
48727;SDS011;34527;45.618;5.130;2023-09-08T05:13:51;7.30;;;4.70;;
48727;SDS011;34527;45.618;5.130;2023-09-08T05:16:16;5.05;;;4.53;;
48727;SDS011;34527;45.618;5.130;2023-09-08T05:18:44;4.80;;;4.30;;
48727;SDS011;34527;45.618;5.130;2023-09-08T05:21:09;5.03;;;4.35;;
48727;SDS011;34527;45.618;5.130;2023-09-08T05:23:35;6.53;;;4.53;;
48727;SDS011;34527;45.618;5.130;2023-09-08T05:26:00;7.30;;;4.25;;
48727;SDS011;34527;45.618;5.130;2023-09-08T05:28:26;5.72;;;4.40;;
48727;SDS011;34527;45.618;5.130;2023-09-08T05:30:52;5.03;;;4.43;;
48727;SDS011;34527;45.618;5.130;2023-09-08T05:33:18;5.47;;;4.78;;
48727;SDS011;34527;45.618;5.130;2023-09-08T05:35:44;8.82;;;4.72;;
48727;SDS011;34527;45.618;5.130;2023-09-08T05:38:10;7.00;;;5.40;;
48727;SDS011;34527;45.618;5.130;2023-09-08T05:40:36;6.55;;;5.25;;
48727;SDS011;34527;45.618;5.130;2023-09-08T05:43:02;5.55;;;4.97;;
48727;SDS011;34527;45.618;5.130;2023-09-08T05:45:28;7.10;;;4.90;;
48727;SDS011;34527;45.618;5.130;2023-09-08T05:47:56;5.50;;;4.88;;
48727;SDS011;34527;45.618;5.130;2023-09-08T05:50:22;6.25;;;5.10;;
48727;SDS011;34527;45.618;5.130;2023-09-08T05:52:47;6.55;;;4.93;;
48727;SDS011;34527;45.618;5.130;2023-09-08T05:55:13;5.82;;;5.22;;
48727;SDS011;34527;45.618;5.130;2023-09-08T05:57:39;6.32;;;5.05;;
48727;SDS011;34527;45.618;5.130;2023-09-08T06:00:05;7.72;;;5.18;;
48727;SDS011;34527;45.618;5.130;2023-09-08T06:02:32;6.85;;;4.80;;
48727;SDS011;34527;45.618;5.130;2023-09-08T06:04:57;8.18;;;5.43;;
48727;SDS011;34527;45.618;5.130;2023-09-08T06:07:23;7.47;;;5.60;;
48727;SDS011;34527;45.618;5.130;2023-09-08T06:09:48;6.22;;;5.30;;
48727;SDS011;34527;45.618;5.130;2023-09-08T06:12:14;6.22;;;5.30;;
48727;SDS011;34527;45.618;5.130;2023-09-08T06:14:40;8.60;;;5.00;;
48727;SDS011;34527;45.618;5.130;2023-09-08T06:17:05;7.63;;;5.22;;
48727;SDS011;34527;45.618;5.130;2023-09-08T06:19:31;5.43;;;4.90;;
48727;SDS011;34527;45.618;5.130;2023-09-08T06:21:56;8.25;;;5.13;;
48727;SDS011;34527;45.618;5.130;2023-09-08T06:24:22;5.88;;;5.15;;
48727;SDS011;34527;45.618;5.130;2023-09-08T06:26:49;5.50;;;5.00;;
48727;SDS011;34527;45.618;5.130;2023-09-08T06:29:14;7.65;;;5.35;;
48727;SDS011;34527;45.618;5.130;2023-09-08T06:31:40;6.68;;;5.20;;
48727;SDS011;34527;45.618;5.130;2023-09-08T06:34:06;6.03;;;5.00;;
48727;SDS011;34527;45.618;5.130;2023-09-08T06:36:31;5.95;;;5.35;;
48727;SDS011;34527;45.618;5.130;2023-09-08T06:38:57;14.90;;;5.78;;
48727;SDS011;34527;45.618;5.130;2023-09-08T06:41:22;5.47;;;4.82;;
48727;SDS011;34527;45.618;5.130;2023-09-08T06:43:48;7.05;;;5.25;;
48727;SDS011;34527;45.618;5.130;2023-09-08T06:46:14;7.78;;;5.32;;
48727;SDS011;34527;45.618;5.130;2023-09-08T06:48:40;5.43;;;4.93;;
48727;SDS011;34527;45.618;5.130;2023-09-08T06:51:06;9.52;;;5.30;;
48727;SDS011;34527;45.618;5.130;2023-09-08T06:53:31;6.03;;;5.10;;
48727;SDS011;34527;45.618;5.130;2023-09-08T06:55:57;6.88;;;5.38;;
48727;SDS011;34527;45.618;5.130;2023-09-08T06:58:23;10.60;;;5.20;;
48727;SDS011;34527;45.618;5.130;2023-09-08T07:00:49;8.30;;;4.90;;
48727;SDS011;34527;45.618;5.130;2023-09-08T07:03:15;11.57;;;5.32;;
48727;SDS011;34527;45.618;5.130;2023-09-08T07:05:41;5.30;;;4.90;;
48727;SDS011;34527;45.618;5.130;2023-09-08T07:08:06;6.88;;;4.63;;
48727;SDS011;34527;45.618;5.130;2023-09-08T07:10:32;6.53;;;5.10;;
48727;SDS011;34527;45.618;5.130;2023-09-08T07:12:58;5.97;;;4.82;;
48727;SDS011;34527;45.618;5.130;2023-09-08T07:15:23;8.45;;;5.40;;
48727;SDS011;34527;45.618;5.130;2023-09-08T07:17:49;8.45;;;5.30;;
48727;SDS011;34527;45.618;5.130;2023-09-08T07:20:14;7.60;;;5.13;;
48727;SDS011;34527;45.618;5.130;2023-09-08T07:22:40;5.97;;;4.70;;
48727;SDS011;34527;45.618;5.130;2023-09-08T07:25:09;5.65;;;4.53;;
48727;SDS011;34527;45.618;5.130;2023-09-08T07:27:35;9.23;;;4.90;;
48727;SDS011;34527;45.618;5.130;2023-09-08T07:30:00;7.35;;;5.15;;
48727;SDS011;34527;45.618;5.130;2023-09-08T07:32:26;5.95;;;4.28;;
48727;SDS011;34527;45.618;5.130;2023-09-08T07:34:51;8.38;;;4.43;;
48727;SDS011;34527;45.618;5.130;2023-09-08T07:37:23;9.82;;;5.55;;
48727;SDS011;34527;45.618;5.130;2023-09-08T07:39:49;6.18;;;4.78;;
48727;SDS011;34527;45.618;5.130;2023-09-08T07:42:16;7.00;;;4.50;;
48727;SDS011;34527;45.618;5.130;2023-09-08T07:44:42;6.53;;;4.50;;
48727;SDS011;34527;45.618;5.130;2023-09-08T07:47:07;8.27;;;4.47;;
48727;SDS011;34527;45.618;5.130;2023-09-08T07:49:33;4.80;;;4.40;;
48727;SDS011;34527;45.618;5.130;2023-09-08T07:51:59;6.22;;;4.50;;
48727;SDS011;34527;45.618;5.130;2023-09-08T07:54:25;8.77;;;4.30;;
48727;SDS011;34527;45.618;5.130;2023-09-08T07:56:50;5.43;;;4.15;;
48727;SDS011;34527;45.618;5.130;2023-09-08T07:59:16;7.75;;;3.90;;
48727;SDS011;34527;45.618;5.130;2023-09-08T08:01:42;6.00;;;4.03;;
48727;SDS011;34527;45.618;5.130;2023-09-08T08:04:08;5.38;;;4.10;;
48727;SDS011;34527;45.618;5.130;2023-09-08T08:06:33;4.32;;;3.42;;
48727;SDS011;34527;45.618;5.130;2023-09-08T08:08:59;6.70;;;3.88;;
48727;SDS011;34527;45.618;5.130;2023-09-08T08:11:24;5.47;;;3.70;;
48727;SDS011;34527;45.618;5.130;2023-09-08T08:13:50;8.05;;;3.90;;
48727;SDS011;34527;45.618;5.130;2023-09-08T08:16:16;8.18;;;4.00;;
48727;SDS011;34527;45.618;5.130;2023-09-08T08:18:42;5.00;;;3.47;;
48727;SDS011;34527;45.618;5.130;2023-09-08T08:21:08;5.80;;;3.65;;
48727;SDS011;34527;45.618;5.130;2023-09-08T08:23:34;6.88;;;3.25;;
48727;SDS011;34527;45.618;5.130;2023-09-08T08:26:01;4.97;;;3.83;;
48727;SDS011;34527;45.618;5.130;2023-09-08T08:28:26;4.28;;;3.50;;
48727;SDS011;34527;45.618;5.130;2023-09-08T08:30:52;4.03;;;3.65;;
48727;SDS011;34527;45.618;5.130;2023-09-08T08:33:18;5.55;;;3.78;;
48727;SDS011;34527;45.618;5.130;2023-09-08T08:35:49;4.07;;;3.65;;
48727;SDS011;34527;45.618;5.130;2023-09-08T08:38:15;4.10;;;3.50;;
48727;SDS011;34527;45.618;5.130;2023-09-08T08:40:41;5.90;;;3.45;;
48727;SDS011;34527;45.618;5.130;2023-09-08T08:43:07;5.25;;;3.45;;
48727;SDS011;34527;45.618;5.130;2023-09-08T08:45:33;6.47;;;3.67;;
48727;SDS011;34527;45.618;5.130;2023-09-08T08:48:00;5.07;;;3.70;;
48727;SDS011;34527;45.618;5.130;2023-09-08T08:50:27;5.72;;;4.53;;
48727;SDS011;34527;45.618;5.130;2023-09-08T08:52:54;5.38;;;4.70;;
48727;SDS011;34527;45.618;5.130;2023-09-08T08:55:20;3.90;;;3.50;;
48727;SDS011;34527;45.618;5.130;2023-09-08T08:57:46;4.25;;;2.92;;
48727;SDS011;34527;45.618;5.130;2023-09-08T09:00:13;3.28;;;2.97;;
48727;SDS011;34527;45.618;5.130;2023-09-08T09:02:41;3.50;;;3.20;;
48727;SDS011;34527;45.618;5.130;2023-09-08T09:05:11;3.28;;;2.85;;
48727;SDS011;34527;45.618;5.130;2023-09-08T09:07:38;3.10;;;2.80;;
48727;SDS011;34527;45.618;5.130;2023-09-08T09:10:04;3.92;;;3.17;;
48727;SDS011;34527;45.618;5.130;2023-09-08T09:12:32;3.30;;;2.95;;
48727;SDS011;34527;45.618;5.130;2023-09-08T09:14:58;3.30;;;2.97;;
48727;SDS011;34527;45.618;5.130;2023-09-08T09:17:25;4.65;;;3.63;;
48727;SDS011;34527;45.618;5.130;2023-09-08T09:19:50;4.35;;;2.92;;
48727;SDS011;34527;45.618;5.130;2023-09-08T09:22:36;9.18;;;3.00;;
48727;SDS011;34527;45.618;5.130;2023-09-08T09:25:02;4.65;;;3.08;;
48727;SDS011;34527;45.618;5.130;2023-09-08T09:27:30;4.22;;;2.95;;
48727;SDS011;34527;45.618;5.130;2023-09-08T09:29:56;4.75;;;3.15;;
48727;SDS011;34527;45.618;5.130;2023-09-08T09:32:23;6.57;;;3.20;;
48727;SDS011;34527;45.618;5.130;2023-09-08T09:34:51;3.45;;;3.15;;
48727;SDS011;34527;45.618;5.130;2023-09-08T09:37:21;4.57;;;3.30;;
48727;SDS011;34527;45.618;5.130;2023-09-08T09:39:51;3.85;;;3.20;;
48727;SDS011;34527;45.618;5.130;2023-09-08T09:42:17;6.18;;;3.22;;
48727;SDS011;34527;45.618;5.130;2023-09-08T09:44:44;5.70;;;3.00;;
48727;SDS011;34527;45.618;5.130;2023-09-08T09:47:13;4.40;;;3.10;;
48727;SDS011;34527;45.618;5.130;2023-09-08T09:49:46;5.57;;;3.28;;
48727;SDS011;34527;45.618;5.130;2023-09-08T09:52:12;3.60;;;3.15;;
48727;SDS011;34527;45.618;5.130;2023-09-08T09:54:45;3.20;;;2.95;;
48727;SDS011;34527;45.618;5.130;2023-09-08T09:57:13;5.18;;;3.17;;
48727;SDS011;34527;45.618;5.130;2023-09-08T09:59:42;3.45;;;3.10;;
48727;SDS011;34527;45.618;5.130;2023-09-08T10:02:10;5.30;;;3.45;;
48727;SDS011;34527;45.618;5.130;2023-09-08T10:04:41;4.30;;;3.13;;
48727;SDS011;34527;45.618;5.130;2023-09-08T10:07:07;3.90;;;3.08;;
48727;SDS011;34527;45.618;5.130;2023-09-08T10:09:33;3.42;;;3.10;;
48727;SDS011;34527;45.618;5.130;2023-09-08T10:12:03;3.85;;;3.53;;
48727;SDS011;34527;45.618;5.130;2023-09-08T10:14:30;3.67;;;3.20;;
48727;SDS011;34527;45.618;5.130;2023-09-08T10:17:01;3.65;;;3.05;;
48727;SDS011;34527;45.618;5.130;2023-09-08T10:19:30;5.78;;;3.20;;
48727;SDS011;34527;45.618;5.130;2023-09-08T10:21:59;3.33;;;2.97;;
48727;SDS011;34527;45.618;5.130;2023-09-08T10:24:29;3.47;;;3.10;;
48727;SDS011;34527;45.618;5.130;2023-09-08T10:29:35;3.13;;;2.83;;
48727;SDS011;34527;45.618;5.130;2023-09-08T10:32:02;3.65;;;2.95;;
48727;SDS011;34527;45.618;5.130;2023-09-08T10:34:28;3.45;;;3.08;;
48727;SDS011;34527;45.618;5.130;2023-09-08T10:36:55;3.45;;;2.90;;
48727;SDS011;34527;45.618;5.130;2023-09-08T10:39:28;7.57;;;3.20;;
48727;SDS011;34527;45.618;5.130;2023-09-08T10:44:41;3.40;;;3.08;;
48727;SDS011;34527;45.618;5.130;2023-09-08T10:47:09;3.58;;;2.70;;
48727;SDS011;34527;45.618;5.130;2023-09-08T10:49:35;3.25;;;2.80;;
48727;SDS011;34527;45.618;5.130;2023-09-08T10:52:11;4.65;;;3.15;;
48727;SDS011;34527;45.618;5.130;2023-09-08T10:54:44;5.60;;;2.97;;
48727;SDS011;34527;45.618;5.130;2023-09-08T10:57:18;4.43;;;3.22;;
48727;SDS011;34527;45.618;5.130;2023-09-08T10:59:50;2.90;;;2.70;;
48727;SDS011;34527;45.618;5.130;2023-09-08T11:05:14;3.97;;;2.85;;
48727;SDS011;34527;45.618;5.130;2023-09-08T11:07:41;3.95;;;3.35;;
48727;SDS011;34527;45.618;5.130;2023-09-08T11:10:08;3.20;;;2.90;;
48727;SDS011;34527;45.618;5.130;2023-09-08T11:12:34;6.15;;;3.65;;
48727;SDS011;34527;45.618;5.130;2023-09-08T11:15:04;4.88;;;3.40;;
48727;SDS011;34527;45.618;5.130;2023-09-08T11:17:33;3.63;;;3.22;;
48727;SDS011;34527;45.618;5.130;2023-09-08T11:20:04;4.00;;;3.42;;
48727;SDS011;34527;45.618;5.130;2023-09-08T11:22:35;3.20;;;2.88;;
48727;SDS011;34527;45.618;5.130;2023-09-08T11:25:02;3.53;;;3.08;;
48727;SDS011;34527;45.618;5.130;2023-09-08T11:27:31;4.85;;;3.28;;
48727;SDS011;34527;45.618;5.130;2023-09-08T11:29:58;3.03;;;2.83;;
48727;SDS011;34527;45.618;5.130;2023-09-08T11:32:24;3.47;;;3.17;;
48727;SDS011;34527;45.618;5.130;2023-09-08T11:34:50;3.20;;;2.90;;
48727;SDS011;34527;45.618;5.130;2023-09-08T11:37:16;2.85;;;2.65;;
48727;SDS011;34527;45.618;5.130;2023-09-08T11:39:43;3.65;;;3.00;;
48727;SDS011;34527;45.618;5.130;2023-09-08T11:42:11;3.38;;;3.00;;
48727;SDS011;34527;45.618;5.130;2023-09-08T11:44:38;3.85;;;3.40;;
48727;SDS011;34527;45.618;5.130;2023-09-08T11:47:08;4.22;;;2.72;;
48727;SDS011;34527;45.618;5.130;2023-09-08T11:49:35;5.93;;;3.30;;
48727;SDS011;34527;45.618;5.130;2023-09-08T11:52:02;3.78;;;3.00;;
48727;SDS011;34527;45.618;5.130;2023-09-08T11:54:29;8.85;;;3.53;;
48727;SDS011;34527;45.618;5.130;2023-09-08T11:56:56;4.50;;;3.40;;
48727;SDS011;34527;45.618;5.130;2023-09-08T11:59:24;5.97;;;3.45;;
48727;SDS011;34527;45.618;5.130;2023-09-08T12:01:51;5.22;;;3.20;;
48727;SDS011;34527;45.618;5.130;2023-09-08T12:04:17;4.45;;;3.00;;
48727;SDS011;34527;45.618;5.130;2023-09-08T12:06:47;6.20;;;2.80;;
48727;SDS011;34527;45.618;5.130;2023-09-08T12:09:17;4.10;;;3.00;;
48727;SDS011;34527;45.618;5.130;2023-09-08T12:11:43;3.75;;;2.95;;
48727;SDS011;34527;45.618;5.130;2023-09-08T12:14:10;3.10;;;2.80;;
48727;SDS011;34527;45.618;5.130;2023-09-08T12:16:37;3.13;;;2.78;;
48727;SDS011;34527;45.618;5.130;2023-09-08T12:19:03;3.85;;;2.70;;
48727;SDS011;34527;45.618;5.130;2023-09-08T12:21:29;3.85;;;2.72;;
48727;SDS011;34527;45.618;5.130;2023-09-08T12:23:57;4.47;;;3.20;;
48727;SDS011;34527;45.618;5.130;2023-09-08T12:26:24;3.63;;;3.25;;
48727;SDS011;34527;45.618;5.130;2023-09-08T12:28:50;3.78;;;2.90;;
48727;SDS011;34527;45.618;5.130;2023-09-08T12:31:17;5.03;;;2.75;;
48727;SDS011;34527;45.618;5.130;2023-09-08T12:33:43;3.10;;;2.90;;
48727;SDS011;34527;45.618;5.130;2023-09-08T12:36:18;3.55;;;3.10;;
48727;SDS011;34527;45.618;5.130;2023-09-08T12:38:50;4.10;;;2.88;;
48727;SDS011;34527;45.618;5.130;2023-09-08T12:41:17;3.28;;;3.00;;
48727;SDS011;34527;45.618;5.130;2023-09-08T12:43:44;6.05;;;2.85;;
48727;SDS011;34527;45.618;5.130;2023-09-08T12:49:32;3.67;;;3.08;;
48727;SDS011;34527;45.618;5.130;2023-09-08T12:51:57;3.80;;;2.78;;
48727;SDS011;34527;45.618;5.130;2023-09-08T12:54:23;6.65;;;3.58;;
48727;SDS011;34527;45.618;5.130;2023-09-08T12:56:49;4.40;;;3.00;;
48727;SDS011;34527;45.618;5.130;2023-09-08T12:59:16;2.80;;;2.58;;
48727;SDS011;34527;45.618;5.130;2023-09-08T13:01:41;4.07;;;2.83;;
48727;SDS011;34527;45.618;5.130;2023-09-08T13:04:07;3.47;;;2.63;;
48727;SDS011;34527;45.618;5.130;2023-09-08T13:06:32;3.30;;;2.90;;
48727;SDS011;34527;45.618;5.130;2023-09-08T13:08:59;3.80;;;2.80;;
48727;SDS011;34527;45.618;5.130;2023-09-08T13:11:25;3.45;;;2.75;;
48727;SDS011;34527;45.618;5.130;2023-09-08T13:13:51;3.15;;;2.80;;
48727;SDS011;34527;45.618;5.130;2023-09-08T13:16:16;4.65;;;3.13;;
48727;SDS011;34527;45.618;5.130;2023-09-08T13:18:42;2.95;;;2.75;;
48727;SDS011;34527;45.618;5.130;2023-09-08T13:21:10;3.60;;;3.30;;
48727;SDS011;34527;45.618;5.130;2023-09-08T13:23:38;5.78;;;2.95;;
48727;SDS011;34527;45.618;5.130;2023-09-08T13:26:04;4.25;;;2.78;;
48727;SDS011;34527;45.618;5.130;2023-09-08T13:28:30;4.85;;;3.42;;
48727;SDS011;34527;45.618;5.130;2023-09-08T13:30:55;3.10;;;2.90;;
48727;SDS011;34527;45.618;5.130;2023-09-08T13:33:21;4.38;;;2.90;;
48727;SDS011;34527;45.618;5.130;2023-09-08T13:35:47;5.63;;;3.22;;
48727;SDS011;34527;45.618;5.130;2023-09-08T13:38:13;4.28;;;2.97;;
48727;SDS011;34527;45.618;5.130;2023-09-08T13:40:38;3.28;;;2.97;;
48727;SDS011;34527;45.618;5.130;2023-09-08T13:43:06;4.18;;;3.00;;
48727;SDS011;34527;45.618;5.130;2023-09-08T13:45:31;3.53;;;3.22;;
48727;SDS011;34527;45.618;5.130;2023-09-08T13:47:57;3.90;;;3.03;;
48727;SDS011;34527;45.618;5.130;2023-09-08T13:50:22;4.22;;;3.13;;
48727;SDS011;34527;45.618;5.130;2023-09-08T13:52:48;5.03;;;3.70;;
48727;SDS011;34527;45.618;5.130;2023-09-08T13:55:14;7.13;;;4.30;;
48727;SDS011;34527;45.618;5.130;2023-09-08T13:57:40;5.40;;;3.33;;
48727;SDS011;34527;45.618;5.130;2023-09-08T14:00:05;3.67;;;3.38;;
48727;SDS011;34527;45.618;5.130;2023-09-08T14:02:33;4.68;;;3.30;;
48727;SDS011;34527;45.618;5.130;2023-09-08T14:04:59;3.83;;;3.25;;
48727;SDS011;34527;45.618;5.130;2023-09-08T14:07:25;3.47;;;3.08;;
48727;SDS011;34527;45.618;5.130;2023-09-08T14:09:50;3.60;;;3.00;;
48727;SDS011;34527;45.618;5.130;2023-09-08T14:12:16;3.70;;;3.13;;
48727;SDS011;34527;45.618;5.130;2023-09-08T14:14:41;6.10;;;3.10;;
48727;SDS011;34527;45.618;5.130;2023-09-08T14:17:07;5.82;;;3.42;;
48727;SDS011;34527;45.618;5.130;2023-09-08T14:19:32;4.43;;;3.33;;
48727;SDS011;34527;45.618;5.130;2023-09-08T14:21:58;3.58;;;3.28;;
48727;SDS011;34527;45.618;5.130;2023-09-08T14:24:23;4.65;;;3.47;;
48727;SDS011;34527;45.618;5.130;2023-09-08T14:26:49;4.13;;;3.05;;
48727;SDS011;34527;45.618;5.130;2023-09-08T14:29:16;4.43;;;3.22;;
48727;SDS011;34527;45.618;5.130;2023-09-08T14:31:42;4.13;;;2.80;;
48727;SDS011;34527;45.618;5.130;2023-09-08T14:34:08;4.18;;;3.38;;
48727;SDS011;34527;45.618;5.130;2023-09-08T14:36:34;4.88;;;3.47;;
48727;SDS011;34527;45.618;5.130;2023-09-08T14:38:59;5.63;;;3.38;;
48727;SDS011;34527;45.618;5.130;2023-09-08T14:41:25;3.80;;;3.40;;
48727;SDS011;34527;45.618;5.130;2023-09-08T14:43:51;3.78;;;3.47;;
48727;SDS011;34527;45.618;5.130;2023-09-08T14:46:17;6.07;;;3.30;;
48727;SDS011;34527;45.618;5.130;2023-09-08T14:48:42;3.88;;;3.58;;
48727;SDS011;34527;45.618;5.130;2023-09-08T14:51:08;3.75;;;3.45;;
48727;SDS011;34527;45.618;5.130;2023-09-08T14:53:34;4.63;;;3.70;;
48727;SDS011;34527;45.618;5.130;2023-09-08T14:55:59;6.50;;;3.63;;
48727;SDS011;34527;45.618;5.130;2023-09-08T14:58:25;5.45;;;3.30;;